sensor_id;sensor_type;location;lat;lon;timestamp;pressure;altitude;pressure_sealevel;temperature;humidity
9415;BME280;4746;35.664;139.738;2022-12-08T00:01:41;100534.22;;;15.82;33.33
9415;BME280;4746;35.664;139.738;2022-12-08T00:04:10;100539.41;;;15.79;32.94
9415;BME280;4746;35.664;139.738;2022-12-08T00:06:41;100545.44;;;15.79;33.11
9415;BME280;4746;35.664;139.738;2022-12-08T00:09:36;100548.88;;;15.78;33.11
9415;BME280;4746;35.664;139.738;2022-12-08T00:12:10;100556.66;;;15.77;32.85
9415;BME280;4746;35.664;139.738;2022-12-08T00:14:45;100550.59;;;15.79;33.55
9415;BME280;4746;35.664;139.738;2022-12-08T00:17:16;100545.38;;;15.85;33.26
9415;BME280;4746;35.664;139.738;2022-12-08T00:19:44;100549.69;;;15.85;33.04
9415;BME280;4746;35.664;139.738;2022-12-08T00:22:12;100558.28;;;15.84;32.97
9415;BME280;4746;35.664;139.738;2022-12-08T00:24:42;100552.25;;;15.85;33.10
9415;BME280;4746;35.664;139.738;2022-12-08T00:27:14;100554.84;;;15.88;33.05
9415;BME280;4746;35.664;139.738;2022-12-08T00:29:43;100549.66;;;15.88;33.14
9415;BME280;4746;35.664;139.738;2022-12-08T00:32:11;100546.22;;;15.86;33.11
9415;BME280;4746;35.664;139.738;2022-12-08T00:34:39;100548.78;;;15.87;32.88
9415;BME280;4746;35.664;139.738;2022-12-08T00:37:06;100557.44;;;15.85;32.79
9415;BME280;4746;35.664;139.738;2022-12-08T00:39:34;100554.84;;;15.85;33.26
9415;BME280;4746;35.664;139.738;2022-12-08T00:42:01;100564.31;;;15.86;33.45
9415;BME280;4746;35.664;139.738;2022-12-08T00:44:42;100563.44;;;15.87;32.99
9415;BME280;4746;35.664;139.738;2022-12-08T00:47:11;100563.41;;;15.91;33.17
9415;BME280;4746;35.664;139.738;2022-12-08T00:49:39;100557.38;;;15.94;33.23
9415;BME280;4746;35.664;139.738;2022-12-08T00:52:07;100554.78;;;15.94;32.96
9415;BME280;4746;35.664;139.738;2022-12-08T00:54:35;100557.34;;;15.98;33.14
9415;BME280;4746;35.664;139.738;2022-12-08T00:57:03;100559.88;;;16.01;32.74
9415;BME280;4746;35.664;139.738;2022-12-08T00:59:30;100558.06;;;16.07;32.75
9415;BME280;4746;35.664;139.738;2022-12-08T01:01:58;100549.44;;;16.08;32.71
9415;BME280;4746;35.664;139.738;2022-12-08T01:04:26;100548.56;;;16.12;32.41
9415;BME280;4746;35.664;139.738;2022-12-08T01:06:53;100547.75;;;16.09;32.60
9415;BME280;4746;35.664;139.738;2022-12-08T01:09:21;100552.00;;;16.13;32.57
9415;BME280;4746;35.664;139.738;2022-12-08T01:11:48;100552.81;;;16.16;32.40
9415;BME280;4746;35.664;139.738;2022-12-08T01:14:16;100548.53;;;16.15;32.47
9415;BME280;4746;35.664;139.738;2022-12-08T01:16:44;100551.09;;;16.18;32.37
9415;BME280;4746;35.664;139.738;2022-12-08T01:19:14;100549.25;;;16.26;32.42
9415;BME280;4746;35.664;139.738;2022-12-08T01:21:44;100545.88;;;16.24;32.34
9415;BME280;4746;35.664;139.738;2022-12-08T01:24:20;100548.41;;;16.32;32.66
9415;BME280;4746;35.664;139.738;2022-12-08T01:26:50;100539.75;;;16.34;32.14
9415;BME280;4746;35.664;139.738;2022-12-08T01:29:18;100532.72;;;16.42;32.01
9415;BME280;4746;35.664;139.738;2022-12-08T01:31:45;100529.22;;;16.51;31.85
9415;BME280;4746;35.664;139.738;2022-12-08T01:34:13;100531.69;;;16.58;32.36
9415;BME280;4746;35.664;139.738;2022-12-08T01:36:41;100531.50;;;16.73;31.98
9415;BME280;4746;35.664;139.738;2022-12-08T01:39:17;100538.19;;;16.89;31.81
9415;BME280;4746;35.664;139.738;2022-12-08T01:41:46;100528.59;;;16.97;31.19
9415;BME280;4746;35.664;139.738;2022-12-08T01:46:45;100507.69;;;17.12;31.07
9415;BME280;4746;35.664;139.738;2022-12-08T01:49:27;100505.78;;;17.21;30.78
9415;BME280;4746;35.664;139.738;2022-12-08T01:54:57;100507.31;;;17.36;30.70
9415;BME280;4746;35.664;139.738;2022-12-08T01:57:48;100495.09;;;17.43;30.72
9415;BME280;4746;35.664;139.738;2022-12-08T02:00:21;100480.34;;;17.50;30.45
9415;BME280;4746;35.664;139.738;2022-12-08T02:05:29;100479.16;;;17.67;29.90
9415;BME280;4746;35.664;139.738;2022-12-08T02:08:07;100462.47;;;17.82;29.91
9415;BME280;4746;35.664;139.738;2022-12-08T02:10:41;100458.94;;;17.87;29.90
9415;BME280;4746;35.664;139.738;2022-12-08T02:13:13;100460.34;;;18.03;29.84
9415;BME280;4746;35.664;139.738;2022-12-08T02:25:08;100450.22;;;18.74;29.28
9415;BME280;4746;35.664;139.738;2022-12-08T02:28:07;100443.97;;;18.82;28.97
9415;BME280;4746;35.664;139.738;2022-12-08T02:31:36;100444.25;;;19.08;28.84
9415;BME280;4746;35.664;139.738;2022-12-08T02:34:40;100437.69;;;19.29;28.45
9415;BME280;4746;35.664;139.738;2022-12-08T02:37:34;100432.31;;;19.36;28.36
9415;BME280;4746;35.664;139.738;2022-12-08T02:46:14;100426.69;;;19.52;27.30
9415;BME280;4746;35.664;139.738;2022-12-08T02:48:21;100422.16;;;19.59;27.30
9415;BME280;4746;35.664;139.738;2022-12-08T02:50:49;100423.72;;;19.66;26.82
9415;BME280;4746;35.664;139.738;2022-12-08T02:53:16;100419.91;;;19.79;26.92
9415;BME280;4746;35.664;139.738;2022-12-08T02:56:10;100414.97;;;20.02;26.80
9415;BME280;4746;35.664;139.738;2022-12-08T03:02:33;100406.47;;;20.25;26.48
9415;BME280;4746;35.664;139.738;2022-12-08T03:08:48;100404.56;;;20.59;26.66
9415;BME280;4746;35.664;139.738;2022-12-08T03:11:47;100398.69;;;21.09;26.10
9415;BME280;4746;35.664;139.738;2022-12-08T03:14:16;100389.53;;;21.96;25.10
9415;BME280;4746;35.664;139.738;2022-12-08T03:16:49;100386.00;;;22.66;24.14
9415;BME280;4746;35.664;139.738;2022-12-08T03:19:31;100388.81;;;23.25;23.75
9415;BME280;4746;35.664;139.738;2022-12-08T03:22:02;100391.53;;;23.64;23.39
9415;BME280;4746;35.664;139.738;2022-12-08T03:24:39;100387.53;;;23.95;23.25
9415;BME280;4746;35.664;139.738;2022-12-08T03:27:27;100387.88;;;24.44;23.57
9415;BME280;4746;35.664;139.738;2022-12-08T03:29:58;100369.53;;;24.62;23.06
9415;BME280;4746;35.664;139.738;2022-12-08T03:35:21;100389.63;;;24.44;23.32
9415;BME280;4746;35.664;139.738;2022-12-08T03:37:50;100383.63;;;24.42;22.75
9415;BME280;4746;35.664;139.738;2022-12-08T03:40:19;100381.69;;;25.68;22.53
9415;BME280;4746;35.664;139.738;2022-12-08T03:42:47;100378.31;;;28.23;19.43
9415;BME280;4746;35.664;139.738;2022-12-08T03:45:14;100379.06;;;30.81;18.02
9415;BME280;4746;35.664;139.738;2022-12-08T03:47:42;100375.94;;;32.56;16.07
9415;BME280;4746;35.664;139.738;2022-12-08T03:50:11;100374.31;;;33.70;15.60
9415;BME280;4746;35.664;139.738;2022-12-08T03:52:38;100367.72;;;34.44;15.09
9415;BME280;4746;35.664;139.738;2022-12-08T03:55:07;100373.91;;;35.31;14.40
9415;BME280;4746;35.664;139.738;2022-12-08T03:57:35;100369.56;;;36.13;13.64
9415;BME280;4746;35.664;139.738;2022-12-08T04:00:05;100360.59;;;36.41;13.36
9415;BME280;4746;35.664;139.738;2022-12-08T04:02:33;100356.63;;;36.72;12.90
9415;BME280;4746;35.664;139.738;2022-12-08T04:05:01;100359.28;;;37.16;12.64
9415;BME280;4746;35.664;139.738;2022-12-08T04:07:29;100357.22;;;37.70;12.21
9415;BME280;4746;35.664;139.738;2022-12-08T04:09:56;100363.88;;;38.09;11.87
9415;BME280;4746;35.664;139.738;2022-12-08T04:12:24;100362.38;;;38.48;11.49
9415;BME280;4746;35.664;139.738;2022-12-08T04:14:52;100365.72;;;38.83;11.23
9415;BME280;4746;35.664;139.738;2022-12-08T04:17:19;100368.53;;;38.82;11.03
9415;BME280;4746;35.664;139.738;2022-12-08T04:19:50;100357.16;;;38.88;10.92
9415;BME280;4746;35.664;139.738;2022-12-08T04:22:17;100363.72;;;38.93;10.55
9415;BME280;4746;35.664;139.738;2022-12-08T04:24:48;100356.50;;;38.94;11.01
9415;BME280;4746;35.664;139.738;2022-12-08T04:27:17;100362.28;;;39.30;10.35
9415;BME280;4746;35.664;139.738;2022-12-08T04:29:45;100364.94;;;39.78;9.95
9415;BME280;4746;35.664;139.738;2022-12-08T04:32:12;100356.50;;;40.13;9.78
9415;BME280;4746;35.664;139.738;2022-12-08T04:34:40;100364.81;;;40.42;9.78
9415;BME280;4746;35.664;139.738;2022-12-08T04:37:07;100366.38;;;40.66;9.81
9415;BME280;4746;35.664;139.738;2022-12-08T04:39:44;100368.47;;;41.09;9.69
9415;BME280;4746;35.664;139.738;2022-12-08T04:42:11;100364.88;;;41.39;9.23
9415;BME280;4746;35.664;139.738;2022-12-08T04:44:39;100368.25;;;41.19;9.68
9415;BME280;4746;35.664;139.738;2022-12-08T04:47:06;100372.22;;;41.08;9.17
9415;BME280;4746;35.664;139.738;2022-12-08T04:49:34;100372.41;;;41.21;8.88
9415;BME280;4746;35.664;139.738;2022-12-08T04:52:02;100376.06;;;41.28;8.81
9415;BME280;4746;35.664;139.738;2022-12-08T04:54:29;100380.00;;;40.95;8.79
9415;BME280;4746;35.664;139.738;2022-12-08T04:56:57;100378.97;;;40.28;9.15
9415;BME280;4746;35.664;139.738;2022-12-08T04:59:24;100384.66;;;40.25;9.22
9415;BME280;4746;35.664;139.738;2022-12-08T05:01:52;100377.94;;;40.75;9.35
9415;BME280;4746;35.664;139.738;2022-12-08T05:04:19;100384.53;;;41.25;8.90
9415;BME280;4746;35.664;139.738;2022-12-08T05:06:49;100380.00;;;41.40;9.26
9415;BME280;4746;35.664;139.738;2022-12-08T05:09:16;100381.97;;;41.46;8.90
9415;BME280;4746;35.664;139.738;2022-12-08T05:11:44;100387.38;;;41.68;8.51
9415;BME280;4746;35.664;139.738;2022-12-08T05:14:13;100394.72;;;41.74;8.67
9415;BME280;4746;35.664;139.738;2022-12-08T05:16:41;100387.34;;;42.05;8.77
9415;BME280;4746;35.664;139.738;2022-12-08T05:19:09;100395.88;;;42.23;8.24
9415;BME280;4746;35.664;139.738;2022-12-08T05:21:37;100392.38;;;42.37;8.27
9415;BME280;4746;35.664;139.738;2022-12-08T05:24:05;100392.59;;;42.35;8.69
9415;BME280;4746;35.664;139.738;2022-12-08T05:26:33;100388.56;;;42.60;8.41
9415;BME280;4746;35.664;139.738;2022-12-08T05:29:01;100391.09;;;42.33;8.57
9415;BME280;4746;35.664;139.738;2022-12-08T05:31:28;100382.81;;;42.34;8.38
9415;BME280;4746;35.664;139.738;2022-12-08T05:33:56;100391.81;;;42.12;8.19
9415;BME280;4746;35.664;139.738;2022-12-08T05:36:24;100396.28;;;42.05;8.21
9415;BME280;4746;35.664;139.738;2022-12-08T05:38:51;100403.81;;;41.96;8.15
9415;BME280;4746;35.664;139.738;2022-12-08T05:41:20;100396.00;;;42.00;8.61
9415;BME280;4746;35.664;139.738;2022-12-08T05:43:50;100406.19;;;41.91;8.61
9415;BME280;4746;35.664;139.738;2022-12-08T05:46:17;100406.97;;;41.77;8.58
9415;BME280;4746;35.664;139.738;2022-12-08T05:48:45;100406.13;;;41.76;8.21
9415;BME280;4746;35.664;139.738;2022-12-08T05:51:23;100406.09;;;41.62;8.60
9415;BME280;4746;35.664;139.738;2022-12-08T05:53:52;100406.59;;;41.43;8.55
9415;BME280;4746;35.664;139.738;2022-12-08T05:56:21;100406.97;;;41.32;8.73
9415;BME280;4746;35.664;139.738;2022-12-08T05:58:49;100401.69;;;41.24;8.82
9415;BME280;4746;35.664;139.738;2022-12-08T06:01:29;100408.44;;;40.90;8.93
9415;BME280;4746;35.664;139.738;2022-12-08T06:03:59;100406.84;;;40.65;8.96
9415;BME280;4746;35.664;139.738;2022-12-08T06:06:28;100410.72;;;40.62;9.35
9415;BME280;4746;35.664;139.738;2022-12-08T06:08:56;100422.53;;;40.53;9.09
9415;BME280;4746;35.664;139.738;2022-12-08T06:11:29;100420.88;;;40.45;9.54
9415;BME280;4746;35.664;139.738;2022-12-08T06:13:58;100417.56;;;40.35;8.86
9415;BME280;4746;35.664;139.738;2022-12-08T06:16:27;100420.66;;;40.08;9.50
9415;BME280;4746;35.664;139.738;2022-12-08T06:18:56;100424.16;;;40.16;8.52
9415;BME280;4746;35.664;139.738;2022-12-08T06:21:24;100425.66;;;40.19;9.40
9415;BME280;4746;35.664;139.738;2022-12-08T06:23:53;100428.50;;;40.33;9.08
9415;BME280;4746;35.664;139.738;2022-12-08T06:26:22;100431.75;;;39.89;9.07
9415;BME280;4746;35.664;139.738;2022-12-08T06:28:50;100431.09;;;39.55;9.03
9415;BME280;4746;35.664;139.738;2022-12-08T06:31:23;100434.69;;;39.22;9.44
9415;BME280;4746;35.664;139.738;2022-12-08T06:33:53;100434.31;;;39.02;9.62
9415;BME280;4746;35.664;139.738;2022-12-08T06:36:24;100435.88;;;38.71;9.83
9415;BME280;4746;35.664;139.738;2022-12-08T06:38:53;100438.09;;;38.50;9.93
9415;BME280;4746;35.664;139.738;2022-12-08T06:41:21;100434.66;;;38.07;10.05
9415;BME280;4746;35.664;139.738;2022-12-08T06:43:48;100439.19;;;37.71;9.63
9415;BME280;4746;35.664;139.738;2022-12-08T06:46:19;100439.00;;;37.30;10.50
9415;BME280;4746;35.664;139.738;2022-12-08T06:48:47;100436.13;;;36.97;10.50
9415;BME280;4746;35.664;139.738;2022-12-08T06:51:21;100456.78;;;36.68;10.78
9415;BME280;4746;35.664;139.738;2022-12-08T06:53:51;100460.63;;;36.10;11.68
9415;BME280;4746;35.664;139.738;2022-12-08T06:56:19;100457.00;;;35.55;11.77
9415;BME280;4746;35.664;139.738;2022-12-08T06:58:48;100466.19;;;35.04;12.09
9415;BME280;4746;35.664;139.738;2022-12-08T07:01:15;100471.84;;;34.51;12.37
9415;BME280;4746;35.664;139.738;2022-12-08T07:03:44;100472.91;;;33.98;12.54
9415;BME280;4746;35.664;139.738;2022-12-08T07:06:22;100475.38;;;33.27;13.06
9415;BME280;4746;35.664;139.738;2022-12-08T07:08:50;100481.22;;;32.34;13.90
9415;BME280;4746;35.664;139.738;2022-12-08T07:11:18;100483.50;;;31.36;14.52
9415;BME280;4746;35.664;139.738;2022-12-08T07:13:47;100479.47;;;30.46;15.73
9415;BME280;4746;35.664;139.738;2022-12-08T07:16:15;100483.59;;;29.62;16.06
9415;BME280;4746;35.664;139.738;2022-12-08T07:18:43;100487.44;;;28.62;16.46
9415;BME280;4746;35.664;139.738;2022-12-08T07:21:12;100486.53;;;27.63;17.54
9415;BME280;4746;35.664;139.738;2022-12-08T07:23:46;100500.44;;;26.72;18.53
9415;BME280;4746;35.664;139.738;2022-12-08T07:26:14;100504.19;;;25.86;18.73
9415;BME280;4746;35.664;139.738;2022-12-08T07:28:43;100513.69;;;25.18;20.03
9415;BME280;4746;35.664;139.738;2022-12-08T07:31:23;100512.22;;;24.55;20.43
9415;BME280;4746;35.664;139.738;2022-12-08T07:33:52;100513.91;;;23.98;20.97
9415;BME280;4746;35.664;139.738;2022-12-08T07:36:21;100524.59;;;23.51;21.22
9415;BME280;4746;35.664;139.738;2022-12-08T07:38:50;100527.19;;;23.08;22.12
9415;BME280;4746;35.664;139.738;2022-12-08T07:41:24;100526.88;;;22.72;22.62
9415;BME280;4746;35.664;139.738;2022-12-08T07:43:53;100536.03;;;22.36;23.18
9415;BME280;4746;35.664;139.738;2022-12-08T07:46:23;100541.38;;;22.07;23.61
9415;BME280;4746;35.664;139.738;2022-12-08T07:48:52;100541.41;;;21.81;23.98
9415;BME280;4746;35.664;139.738;2022-12-08T07:51:21;100546.50;;;21.59;24.33
9415;BME280;4746;35.664;139.738;2022-12-08T07:53:50;100541.09;;;21.37;24.79
9415;BME280;4746;35.664;139.738;2022-12-08T07:56:18;100558.19;;;21.18;25.28
9415;BME280;4746;35.664;139.738;2022-12-08T07:58:46;100563.06;;;21.01;25.24
9415;BME280;4746;35.664;139.738;2022-12-08T08:01:29;100562.63;;;20.86;25.26
9415;BME280;4746;35.664;139.738;2022-12-08T08:04:02;100578.78;;;20.68;25.60
9415;BME280;4746;35.664;139.738;2022-12-08T08:06:33;100573.16;;;20.51;25.95
9415;BME280;4746;35.664;139.738;2022-12-08T08:09:01;100576.19;;;20.36;25.85
9415;BME280;4746;35.664;139.738;2022-12-08T08:11:28;100586.09;;;20.24;26.07
9415;BME280;4746;35.664;139.738;2022-12-08T08:13:57;100581.09;;;20.15;26.46
9415;BME280;4746;35.664;139.738;2022-12-08T08:16:25;100589.19;;;20.05;26.17
9415;BME280;4746;35.664;139.738;2022-12-08T08:18:52;100596.41;;;19.94;26.54
9415;BME280;4746;35.664;139.738;2022-12-08T08:21:21;100605.19;;;19.87;26.90
9415;BME280;4746;35.664;139.738;2022-12-08T08:23:48;100603.81;;;19.74;26.87
9415;BME280;4746;35.664;139.738;2022-12-08T08:26:16;100610.94;;;19.66;27.14
9415;BME280;4746;35.664;139.738;2022-12-08T08:28:43;100612.84;;;19.58;26.94
9415;BME280;4746;35.664;139.738;2022-12-08T08:31:12;100614.78;;;19.50;27.59
9415;BME280;4746;35.664;139.738;2022-12-08T08:33:39;100612.31;;;19.44;27.31
9415;BME280;4746;35.664;139.738;2022-12-08T08:36:10;100612.50;;;19.35;27.71
9415;BME280;4746;35.664;139.738;2022-12-08T08:38:38;100626.59;;;19.25;27.84
9415;BME280;4746;35.664;139.738;2022-12-08T08:41:11;100611.13;;;19.19;28.30
9415;BME280;4746;35.664;139.738;2022-12-08T08:43:39;100612.94;;;19.16;28.71
9415;BME280;4746;35.664;139.738;2022-12-08T08:46:08;100621.66;;;19.13;28.52
9415;BME280;4746;35.664;139.738;2022-12-08T08:48:36;100617.41;;;19.09;28.39
9415;BME280;4746;35.664;139.738;2022-12-08T08:51:10;100614.81;;;19.08;28.83
9415;BME280;4746;35.664;139.738;2022-12-08T08:53:39;100618.34;;;19.04;28.90
9415;BME280;4746;35.664;139.738;2022-12-08T08:56:16;100624.41;;;19.04;28.57
9415;BME280;4746;35.664;139.738;2022-12-08T08:58:51;100626.22;;;18.99;29.02
9415;BME280;4746;35.664;139.738;2022-12-08T09:01:23;100629.75;;;18.97;29.17
9415;BME280;4746;35.664;139.738;2022-12-08T09:03:51;100626.34;;;18.95;29.64
9415;BME280;4746;35.664;139.738;2022-12-08T09:06:20;100627.25;;;18.92;29.29
9415;BME280;4746;35.664;139.738;2022-12-08T09:08:49;100630.75;;;18.91;29.27
9415;BME280;4746;35.664;139.738;2022-12-08T09:11:17;100632.53;;;18.88;29.24
9415;BME280;4746;35.664;139.738;2022-12-08T09:13:48;100617.09;;;18.82;29.34
9415;BME280;4746;35.664;139.738;2022-12-08T09:16:16;100629.34;;;18.76;29.53
9415;BME280;4746;35.664;139.738;2022-12-08T09:18:44;100625.06;;;18.72;29.25
9415;BME280;4746;35.664;139.738;2022-12-08T09:21:15;100630.53;;;18.58;29.46
9415;BME280;4746;35.664;139.738;2022-12-08T09:23:47;100627.22;;;18.52;29.44
9415;BME280;4746;35.664;139.738;2022-12-08T09:26:15;100626.44;;;18.45;29.99
9415;BME280;4746;35.664;139.738;2022-12-08T09:28:42;100626.38;;;18.50;30.49
9415;BME280;4746;35.664;139.738;2022-12-08T09:31:13;100623.78;;;18.50;30.14
9415;BME280;4746;35.664;139.738;2022-12-08T09:33:41;100629.81;;;18.50;30.16
9415;BME280;4746;35.664;139.738;2022-12-08T09:36:10;100639.34;;;18.50;30.26
9415;BME280;4746;35.664;139.738;2022-12-08T09:38:39;100646.34;;;18.45;29.24
9415;BME280;4746;35.664;139.738;2022-12-08T09:42:02;100645.56;;;18.41;29.10
9415;BME280;4746;35.664;139.738;2022-12-08T09:47:40;100662.41;;;18.15;28.59
9415;BME280;4746;35.664;139.738;2022-12-08T09:53:12;100676.53;;;17.96;28.73
9415;BME280;4746;35.664;139.738;2022-12-08T09:55:52;100673.19;;;17.88;29.10
9415;BME280;4746;35.664;139.738;2022-12-08T10:01:14;100679.53;;;17.71;29.04
9415;BME280;4746;35.664;139.738;2022-12-08T10:03:42;100675.31;;;17.64;29.22
9415;BME280;4746;35.664;139.738;2022-12-08T10:06:32;100683.06;;;17.64;28.93
9415;BME280;4746;35.664;139.738;2022-12-08T10:12:19;100679.81;;;17.51;29.84
9415;BME280;4746;35.664;139.738;2022-12-08T10:18:08;100686.00;;;17.40;29.60
9415;BME280;4746;35.664;139.738;2022-12-08T10:20:41;100679.16;;;17.36;29.92
9415;BME280;4746;35.664;139.738;2022-12-08T10:25:50;100681.75;;;17.33;30.59
9415;BME280;4746;35.664;139.738;2022-12-08T10:28:18;100686.19;;;17.27;30.54
9415;BME280;4746;35.664;139.738;2022-12-08T10:30:45;100693.97;;;17.22;31.09
9415;BME280;4746;35.664;139.738;2022-12-08T10:33:18;100690.56;;;17.20;31.07
9415;BME280;4746;35.664;139.738;2022-12-08T10:35:53;100696.63;;;17.18;31.35
9415;BME280;4746;35.664;139.738;2022-12-08T10:38:35;100690.63;;;17.13;31.76
9415;BME280;4746;35.664;139.738;2022-12-08T10:43:48;100708.81;;;17.07;31.92
9415;BME280;4746;35.664;139.738;2022-12-08T10:46:21;100711.47;;;17.02;32.18
9415;BME280;4746;35.664;139.738;2022-12-08T10:51:36;100716.72;;;16.95;32.78
9415;BME280;4746;35.664;139.738;2022-12-08T10:54:04;100715.09;;;16.88;32.94
9415;BME280;4746;35.664;139.738;2022-12-08T10:56:34;100725.47;;;16.83;33.03
9415;BME280;4746;35.664;139.738;2022-12-08T10:59:17;100726.38;;;16.81;33.40
9415;BME280;4746;35.664;139.738;2022-12-08T11:01:51;100722.97;;;16.76;33.65
9415;BME280;4746;35.664;139.738;2022-12-08T11:04:38;100722.16;;;16.72;33.67
9415;BME280;4746;35.664;139.738;2022-12-08T11:07:09;100725.69;;;16.64;34.16
9415;BME280;4746;35.664;139.738;2022-12-08T11:09:40;100734.31;;;16.60;34.45
9415;BME280;4746;35.664;139.738;2022-12-08T11:12:21;100736.09;;;16.58;34.80
9415;BME280;4746;35.664;139.738;2022-12-08T11:14:58;100736.09;;;16.58;34.96
9415;BME280;4746;35.664;139.738;2022-12-08T11:17:36;100743.00;;;16.56;34.98
9415;BME280;4746;35.664;139.738;2022-12-08T11:22:43;100750.75;;;16.56;35.50
9415;BME280;4746;35.664;139.738;2022-12-08T11:27:55;100741.25;;;16.58;35.06
9415;BME280;4746;35.664;139.738;2022-12-08T11:30:31;100739.53;;;16.57;35.42
9415;BME280;4746;35.664;139.738;2022-12-08T11:33:24;100739.47;;;16.65;35.64
9415;BME280;4746;35.664;139.738;2022-12-08T11:36:04;100736.00;;;16.66;35.88
9415;BME280;4746;35.664;139.738;2022-12-08T11:38:44;100729.97;;;16.64;35.60
9415;BME280;4746;35.664;139.738;2022-12-08T11:41:39;100725.69;;;16.64;35.69
9415;BME280;4746;35.664;139.738;2022-12-08T11:45:12;100737.75;;;16.62;35.37
9415;BME280;4746;35.664;139.738;2022-12-08T11:48:13;100740.44;;;16.53;35.58
9415;BME280;4746;35.664;139.738;2022-12-08T11:51:12;100739.66;;;16.44;35.65
9415;BME280;4746;35.664;139.738;2022-12-08T11:57:03;100741.47;;;16.34;35.81
9415;BME280;4746;35.664;139.738;2022-12-08T11:59:43;100733.75;;;16.28;35.80
9415;BME280;4746;35.664;139.738;2022-12-08T12:16:50;100749.31;;;16.16;35.99
9415;BME280;4746;35.664;139.738;2022-12-08T12:19:22;100743.34;;;16.07;36.19
9415;BME280;4746;35.664;139.738;2022-12-08T12:21:57;100751.09;;;16.07;36.19
9415;BME280;4746;35.664;139.738;2022-12-08T12:24:34;100745.94;;;16.05;36.21
9415;BME280;4746;35.664;139.738;2022-12-08T12:29:57;100753.72;;;16.02;36.13
9415;BME280;4746;35.664;139.738;2022-12-08T12:32:43;100752.88;;;16.00;36.31
9415;BME280;4746;35.664;139.738;2022-12-08T12:35:36;100752.88;;;15.98;35.98
9415;BME280;4746;35.664;139.738;2022-12-08T12:38:25;100761.53;;;15.94;36.46
9415;BME280;4746;35.664;139.738;2022-12-08T12:41:15;100765.00;;;15.84;36.41
9415;BME280;4746;35.664;139.738;2022-12-08T13:05:19;100762.56;;;15.61;38.52
9415;BME280;4746;35.664;139.738;2022-12-08T13:08:02;100771.19;;;15.59;38.45
9415;BME280;4746;35.664;139.738;2022-12-08T13:10:39;100783.28;;;15.54;39.25
9415;BME280;4746;35.664;139.738;2022-12-08T13:13:16;100772.97;;;15.45;38.96
9415;BME280;4746;35.664;139.738;2022-12-08T13:15:55;100785.00;;;15.43;38.76
9415;BME280;4746;35.664;139.738;2022-12-08T13:18:40;100792.78;;;15.37;38.97
9415;BME280;4746;35.664;139.738;2022-12-08T13:24:34;100803.16;;;15.27;39.25
9415;BME280;4746;35.664;139.738;2022-12-08T13:29:38;100797.09;;;15.19;39.59
9415;BME280;4746;35.664;139.738;2022-12-08T13:34:51;100791.09;;;15.36;39.63
9415;BME280;4746;35.664;139.738;2022-12-08T13:37:28;100798.78;;;15.45;39.73
9415;BME280;4746;35.664;139.738;2022-12-08T13:45:25;100788.34;;;15.70;39.61
9415;BME280;4746;35.664;139.738;2022-12-08T13:48:19;100792.63;;;15.76;39.41
9415;BME280;4746;35.664;139.738;2022-12-08T13:51:17;100799.50;;;15.80;39.36
9415;BME280;4746;35.664;139.738;2022-12-08T13:54:39;100796.06;;;15.81;39.29
9415;BME280;4746;35.664;139.738;2022-12-08T13:57:20;100798.63;;;15.78;39.21
9415;BME280;4746;35.664;139.738;2022-12-08T13:59:50;100804.69;;;15.74;39.11
9415;BME280;4746;35.664;139.738;2022-12-08T14:02:40;100804.69;;;15.77;38.92
9415;BME280;4746;35.664;139.738;2022-12-08T14:05:10;100809.00;;;15.70;39.02
9415;BME280;4746;35.664;139.738;2022-12-08T14:07:40;100802.13;;;15.71;38.77
9415;BME280;4746;35.664;139.738;2022-12-08T14:12:51;100794.38;;;15.68;38.45
9415;BME280;4746;35.664;139.738;2022-12-08T14:15:22;100807.31;;;15.62;38.32
9415;BME280;4746;35.664;139.738;2022-12-08T14:17:56;100794.44;;;15.59;38.30
9415;BME280;4746;35.664;139.738;2022-12-08T14:20:33;100804.75;;;15.56;38.35
9415;BME280;4746;35.664;139.738;2022-12-08T14:23:06;100799.63;;;15.53;38.12
9415;BME280;4746;35.664;139.738;2022-12-08T14:25:35;100789.28;;;15.50;38.08
9415;BME280;4746;35.664;139.738;2022-12-08T14:28:04;100797.06;;;15.48;38.13
9415;BME280;4746;35.664;139.738;2022-12-08T14:30:34;100800.47;;;15.49;38.12
9415;BME280;4746;35.664;139.738;2022-12-08T14:33:04;100800.50;;;15.50;37.90
9415;BME280;4746;35.664;139.738;2022-12-08T14:35:36;100804.78;;;15.50;38.15
9415;BME280;4746;35.664;139.738;2022-12-08T14:38:17;100810.78;;;15.59;37.94
9415;BME280;4746;35.664;139.738;2022-12-08T14:40:47;100803.91;;;15.60;37.74
9415;BME280;4746;35.664;139.738;2022-12-08T14:43:19;100808.19;;;15.61;37.78
9415;BME280;4746;35.664;139.738;2022-12-08T14:45:49;100811.66;;;15.57;37.95
9415;BME280;4746;35.664;139.738;2022-12-08T14:54:16;100814.31;;;15.31;37.84
9415;BME280;4746;35.664;139.738;2022-12-08T14:56:54;100799.66;;;15.20;37.79
9415;BME280;4746;35.664;139.738;2022-12-08T15:02:25;100799.72;;;15.07;37.57
9415;BME280;4746;35.664;139.738;2022-12-08T15:07:51;100803.19;;;14.83;37.87
9415;BME280;4746;35.664;139.738;2022-12-08T15:10:28;100803.19;;;14.68;37.97
9415;BME280;4746;35.664;139.738;2022-12-08T15:15:51;100804.03;;;14.44;38.26
9415;BME280;4746;35.664;139.738;2022-12-08T15:18:37;100794.59;;;14.31;38.27
9415;BME280;4746;35.664;139.738;2022-12-08T15:21:09;100796.28;;;14.17;38.56
9415;BME280;4746;35.664;139.738;2022-12-08T15:23:47;100802.25;;;14.11;38.69
9415;BME280;4746;35.664;139.738;2022-12-08T15:26:25;100802.22;;;14.05;38.12
9415;BME280;4746;35.664;139.738;2022-12-08T15:28:54;100803.06;;;13.97;38.63
9415;BME280;4746;35.664;139.738;2022-12-08T15:31:22;100797.91;;;13.94;38.58
9415;BME280;4746;35.664;139.738;2022-12-08T15:33:50;100803.03;;;13.91;38.34
9415;BME280;4746;35.664;139.738;2022-12-08T15:36:17;100807.34;;;13.89;37.97
9415;BME280;4746;35.664;139.738;2022-12-08T15:38:45;100804.75;;;13.83;38.40